首页
METAR-TAF:

METAR-TAF

机场 :

Goldsboro / Seymour Johnson, 北卡罗来纳州, 美国

纬度: 35-20N, 经度: 077-58W, 海拔: 33米

当前天气观测

该预报发布于49分钟前的09:56 UTC
风速15节,风向西北,有时为22节阵风
温度 10°C
湿度 46%
气压 1016 hPa
能見度: 16.1公里
天空无云

METAR: KGSB 210956Z AUTO 31015G22KT 10SM CLR 10/M01 A3000 RMK AO2 PK WND 34030/26 SLP162 T01031014 $

时间: 06:45 (10:45 UTC)

预报

该预报发布于14小时和45分钟前的20:00 UTC
预报有效从19日的 20点(UTC)到 21日的 02点(UTC)
风速6节,风向南转西南
能见度10公里或以上
天空无云
成为
从 20日的 07点(UTC)到 20日的 08点(UTC)
风速6节,风向西南
能见度10公里或以上
多云层高于3000英尺
成为
从 20日的 17点(UTC)到 20日的 18点(UTC)
风速9节,风向西转西南
能見度: 2120
多云层高于2000英尺
多云层高于6000英尺
小阵雨

TAF: KGSB 192000Z 1920/2102 21006KT 9999 SKC QNH3015INS BECMG 2007/2008 22006KT 9999 BKN030 QNH2999INS BECMG 2017/2018 25009KT 8000 -SHRA BKN020 BKN060 QNH2985INS TX22/2018Z TN13/2011Z LAST NO AMDS AFT 1920 NEXT 2120

超过4000个机场的气象观测和天气预报(METAR&TAF报告)。

可查询的气象台以黄色和红色小点在地图上表示。

将鼠标移到小点上方,可查看气象台名称。

然后点击查看天气观测和预报。

如需切换地图:点击带黑十字的绿色按钮放大地图;点击带横线的绿色按钮缩小地图;或者点击绿色箭头查看邻近地区的地图。


METAR-TAF: